Steyr, Austria
Current Conditions -  °F | °C
As of 1:20 AM on Saturday 25 Oct 2014 (Local Time) from LOWL Reporting Station
Broken Clouds Broken Clouds  
Wind Chill:   Ceiling: 4000
Heat Index:   Visibility: 6mi
Dew Point:   Wind: 6mph
Humidity: 87%   Direction: 70°ENE
Pressure: 30.15"   Gusts: NA
Location:  48.04°N, 14.41°E
Report Text: LOWL 242320Z AUTO 07005KT 9000 BKN040 08/06 Q1021
Loading
Personal Weather Stations






























Interactive Weather Map
Tropical Storm Tracking
New forecast layout! Learn more

10-Day Weather Forecast

Advertisements
Track Severe Weather on mobile